sensor_id;sensor_type;location;lat;lon;timestamp;temperature;humidity
69999;DHT22;57339;52.156;5.372;2024-02-04T00:00:40;11.70;99.90
69999;DHT22;57339;52.156;5.372;2024-02-04T00:03:07;11.70;99.90
69999;DHT22;57339;52.156;5.372;2024-02-04T00:05:36;11.60;99.90
69999;DHT22;57339;52.156;5.372;2024-02-04T00:08:03;11.60;99.90
69999;DHT22;57339;52.156;5.372;2024-02-04T00:10:31;11.60;99.90
69999;DHT22;57339;52.156;5.372;2024-02-04T00:12:57;11.50;99.90
69999;DHT22;57339;52.156;5.372;2024-02-04T00:15:24;11.40;99.90
69999;DHT22;57339;52.156;5.372;2024-02-04T00:17:51;11.40;99.90
69999;DHT22;57339;52.156;5.372;2024-02-04T00:20:21;11.40;99.90
69999;DHT22;57339;52.156;5.372;2024-02-04T00:22:47;11.40;99.90
69999;DHT22;57339;52.156;5.372;2024-02-04T00:25:14;11.30;99.90
69999;DHT22;57339;52.156;5.372;2024-02-04T00:27:42;11.30;99.90
69999;DHT22;57339;52.156;5.372;2024-02-04T00:30:09;11.30;99.90
69999;DHT22;57339;52.156;5.372;2024-02-04T00:32:36;11.30;99.90
69999;DHT22;57339;52.156;5.372;2024-02-04T00:35:03;11.30;99.90
69999;DHT22;57339;52.156;5.372;2024-02-04T00:37:30;11.30;99.90
69999;DHT22;57339;52.156;5.372;2024-02-04T00:39:57;11.30;99.90
69999;DHT22;57339;52.156;5.372;2024-02-04T00:42:24;11.30;99.90
69999;DHT22;57339;52.156;5.372;2024-02-04T00:44:51;11.30;99.90
69999;DHT22;57339;52.156;5.372;2024-02-04T00:47:22;11.20;99.90
69999;DHT22;57339;52.156;5.372;2024-02-04T00:49:51;11.20;99.90
69999;DHT22;57339;52.156;5.372;2024-02-04T00:52:18;11.20;99.90
69999;DHT22;57339;52.156;5.372;2024-02-04T00:54:45;11.30;99.90
69999;DHT22;57339;52.156;5.372;2024-02-04T00:57:12;11.30;99.90
69999;DHT22;57339;52.156;5.372;2024-02-04T00:59:39;11.30;99.90
69999;DHT22;57339;52.156;5.372;2024-02-04T01:02:06;11.30;99.90
69999;DHT22;57339;52.156;5.372;2024-02-04T01:04:33;11.20;99.90
69999;DHT22;57339;52.156;5.372;2024-02-04T01:07:00;11.20;99.90
69999;DHT22;57339;52.156;5.372;2024-02-04T01:09:28;11.20;99.90
69999;DHT22;57339;52.156;5.372;2024-02-04T01:11:57;11.20;99.90
69999;DHT22;57339;52.156;5.372;2024-02-04T01:14:27;11.20;99.90
69999;DHT22;57339;52.156;5.372;2024-02-04T01:16:54;11.20;99.90
69999;DHT22;57339;52.156;5.372;2024-02-04T01:19:21;11.20;99.90
69999;DHT22;57339;52.156;5.372;2024-02-04T01:21:48;11.20;99.90
69999;DHT22;57339;52.156;5.372;2024-02-04T01:24:16;11.20;99.90
69999;DHT22;57339;52.156;5.372;2024-02-04T01:26:43;11.20;99.90
69999;DHT22;57339;52.156;5.372;2024-02-04T01:29:10;11.20;99.90
69999;DHT22;57339;52.156;5.372;2024-02-04T01:31:37;11.20;99.90
69999;DHT22;57339;52.156;5.372;2024-02-04T01:34:04;11.20;99.90
69999;DHT22;57339;52.156;5.372;2024-02-04T01:36:31;11.20;99.90
69999;DHT22;57339;52.156;5.372;2024-02-04T01:38:59;11.20;99.90
69999;DHT22;57339;52.156;5.372;2024-02-04T01:41:26;11.20;99.90
69999;DHT22;57339;52.156;5.372;2024-02-04T01:43:53;11.10;99.90
69999;DHT22;57339;52.156;5.372;2024-02-04T01:46:21;11.20;99.90
69999;DHT22;57339;52.156;5.372;2024-02-04T01:48:48;11.20;99.90
69999;DHT22;57339;52.156;5.372;2024-02-04T01:51:17;11.10;99.90
69999;DHT22;57339;52.156;5.372;2024-02-04T01:53:46;11.10;99.90
69999;DHT22;57339;52.156;5.372;2024-02-04T01:56:14;11.10;99.90
69999;DHT22;57339;52.156;5.372;2024-02-04T01:58:42;11.10;99.90
69999;DHT22;57339;52.156;5.372;2024-02-04T02:01:10;11.00;99.90
69999;DHT22;57339;52.156;5.372;2024-02-04T02:03:38;11.00;99.90
69999;DHT22;57339;52.156;5.372;2024-02-04T02:06:05;11.10;99.90
69999;DHT22;57339;52.156;5.372;2024-02-04T02:08:33;11.00;99.90
69999;DHT22;57339;52.156;5.372;2024-02-04T02:11:19;11.00;99.90
69999;DHT22;57339;52.156;5.372;2024-02-04T02:13:56;11.00;99.90
69999;DHT22;57339;52.156;5.372;2024-02-04T02:16:30;11.00;99.90
69999;DHT22;57339;52.156;5.372;2024-02-04T02:24:14;10.90;99.90
69999;DHT22;57339;52.156;5.372;2024-02-04T02:26:42;10.80;99.90
69999;DHT22;57339;52.156;5.372;2024-02-04T02:29:10;10.90;99.90
69999;DHT22;57339;52.156;5.372;2024-02-04T02:31:38;10.90;99.90
69999;DHT22;57339;52.156;5.372;2024-02-04T02:34:15;10.90;99.90
69999;DHT22;57339;52.156;5.372;2024-02-04T02:36:50;10.90;99.90
69999;DHT22;57339;52.156;5.372;2024-02-04T02:39:29;10.80;99.90
69999;DHT22;57339;52.156;5.372;2024-02-04T02:41:59;10.80;99.90
69999;DHT22;57339;52.156;5.372;2024-02-04T02:44:28;10.80;99.90
69999;DHT22;57339;52.156;5.372;2024-02-04T02:46:57;10.90;99.90
69999;DHT22;57339;52.156;5.372;2024-02-04T02:49:27;10.80;99.90
69999;DHT22;57339;52.156;5.372;2024-02-04T02:51:57;10.80;99.90
69999;DHT22;57339;52.156;5.372;2024-02-04T02:54:28;10.80;99.90
69999;DHT22;57339;52.156;5.372;2024-02-04T02:56:59;10.80;99.90
69999;DHT22;57339;52.156;5.372;2024-02-04T02:59:25;10.80;99.90
69999;DHT22;57339;52.156;5.372;2024-02-04T03:01:52;10.90;99.90
69999;DHT22;57339;52.156;5.372;2024-02-04T03:04:22;10.80;99.90
69999;DHT22;57339;52.156;5.372;2024-02-04T03:06:49;10.90;99.90
69999;DHT22;57339;52.156;5.372;2024-02-04T03:09:16;10.90;99.90
69999;DHT22;57339;52.156;5.372;2024-02-04T03:11:43;10.90;99.90
69999;DHT22;57339;52.156;5.372;2024-02-04T03:14:10;10.80;99.90
69999;DHT22;57339;52.156;5.372;2024-02-04T03:16:37;10.80;99.90
69999;DHT22;57339;52.156;5.372;2024-02-04T03:19:06;10.80;99.90
69999;DHT22;57339;52.156;5.372;2024-02-04T03:21:33;10.80;99.90
69999;DHT22;57339;52.156;5.372;2024-02-04T03:24:00;10.70;99.90
69999;DHT22;57339;52.156;5.372;2024-02-04T03:26:27;10.80;99.90
69999;DHT22;57339;52.156;5.372;2024-02-04T03:28:56;10.70;99.90
69999;DHT22;57339;52.156;5.372;2024-02-04T03:31:23;10.70;99.90
69999;DHT22;57339;52.156;5.372;2024-02-04T03:33:53;10.70;99.90
69999;DHT22;57339;52.156;5.372;2024-02-04T03:36:24;10.60;99.90
69999;DHT22;57339;52.156;5.372;2024-02-04T03:38:54;10.70;99.90
69999;DHT22;57339;52.156;5.372;2024-02-04T03:41:23;10.70;99.90
69999;DHT22;57339;52.156;5.372;2024-02-04T03:43:50;10.60;99.90
69999;DHT22;57339;52.156;5.372;2024-02-04T03:46:17;10.60;99.90
69999;DHT22;57339;52.156;5.372;2024-02-04T03:48:46;10.50;99.90
69999;DHT22;57339;52.156;5.372;2024-02-04T03:51:19;10.60;99.90
69999;DHT22;57339;52.156;5.372;2024-02-04T03:53:47;10.50;99.90
69999;DHT22;57339;52.156;5.372;2024-02-04T03:56:14;10.50;99.90
69999;DHT22;57339;52.156;5.372;2024-02-04T03:58:41;10.60;99.90
69999;DHT22;57339;52.156;5.372;2024-02-04T04:01:12;10.40;99.90
69999;DHT22;57339;52.156;5.372;2024-02-04T04:03:41;10.40;99.90
69999;DHT22;57339;52.156;5.372;2024-02-04T04:06:09;10.40;99.90
69999;DHT22;57339;52.156;5.372;2024-02-04T04:08:37;10.40;99.90
69999;DHT22;57339;52.156;5.372;2024-02-04T04:11:06;10.40;99.90
69999;DHT22;57339;52.156;5.372;2024-02-04T04:13:34;10.40;99.90
69999;DHT22;57339;52.156;5.372;2024-02-04T04:16:03;10.40;99.90
69999;DHT22;57339;52.156;5.372;2024-02-04T04:18:31;10.40;99.90
69999;DHT22;57339;52.156;5.372;2024-02-04T04:20:58;10.40;99.90
69999;DHT22;57339;52.156;5.372;2024-02-04T04:23:28;10.40;99.90
69999;DHT22;57339;52.156;5.372;2024-02-04T04:25:58;10.30;99.90
69999;DHT22;57339;52.156;5.372;2024-02-04T04:28:31;10.30;99.90
69999;DHT22;57339;52.156;5.372;2024-02-04T04:30:58;10.30;99.90
69999;DHT22;57339;52.156;5.372;2024-02-04T04:33:29;10.30;99.90
69999;DHT22;57339;52.156;5.372;2024-02-04T04:35:57;10.40;99.90
69999;DHT22;57339;52.156;5.372;2024-02-04T04:38:24;10.40;99.90
69999;DHT22;57339;52.156;5.372;2024-02-04T04:40:52;10.40;99.90
69999;DHT22;57339;52.156;5.372;2024-02-04T04:43:19;10.40;99.90
69999;DHT22;57339;52.156;5.372;2024-02-04T04:45:46;10.40;99.90
69999;DHT22;57339;52.156;5.372;2024-02-04T04:48:13;10.40;99.90
69999;DHT22;57339;52.156;5.372;2024-02-04T04:50:40;10.40;99.90
69999;DHT22;57339;52.156;5.372;2024-02-04T04:53:07;10.30;99.90
69999;DHT22;57339;52.156;5.372;2024-02-04T04:55:35;10.40;99.90
69999;DHT22;57339;52.156;5.372;2024-02-04T04:58:02;10.40;99.90
69999;DHT22;57339;52.156;5.372;2024-02-04T05:00:29;10.40;99.90
69999;DHT22;57339;52.156;5.372;2024-02-04T05:02:58;10.40;99.90
69999;DHT22;57339;52.156;5.372;2024-02-04T05:05:28;10.40;99.90
69999;DHT22;57339;52.156;5.372;2024-02-04T05:07:55;10.40;99.90
69999;DHT22;57339;52.156;5.372;2024-02-04T05:10:29;10.40;99.90
69999;DHT22;57339;52.156;5.372;2024-02-04T05:12:59;10.40;99.90
69999;DHT22;57339;52.156;5.372;2024-02-04T05:15:29;10.30;99.90
69999;DHT22;57339;52.156;5.372;2024-02-04T05:17:59;10.30;99.90
69999;DHT22;57339;52.156;5.372;2024-02-04T05:20:29;10.30;99.90
69999;DHT22;57339;52.156;5.372;2024-02-04T05:22:59;10.30;99.90
69999;DHT22;57339;52.156;5.372;2024-02-04T05:25:27;10.30;99.90
69999;DHT22;57339;52.156;5.372;2024-02-04T05:27:54;10.40;99.90
69999;DHT22;57339;52.156;5.372;2024-02-04T05:30:21;10.40;99.90
69999;DHT22;57339;52.156;5.372;2024-02-04T05:32:49;10.30;99.90
69999;DHT22;57339;52.156;5.372;2024-02-04T05:35:15;10.30;99.90
69999;DHT22;57339;52.156;5.372;2024-02-04T05:37:46;10.30;99.90
69999;DHT22;57339;52.156;5.372;2024-02-04T05:40:13;10.50;99.90
69999;DHT22;57339;52.156;5.372;2024-02-04T05:42:40;10.40;99.90
69999;DHT22;57339;52.156;5.372;2024-02-04T05:45:08;10.40;99.90
69999;DHT22;57339;52.156;5.372;2024-02-04T05:47:35;10.40;99.90
69999;DHT22;57339;52.156;5.372;2024-02-04T05:50:02;10.40;99.90
69999;DHT22;57339;52.156;5.372;2024-02-04T05:52:29;10.30;99.90
69999;DHT22;57339;52.156;5.372;2024-02-04T05:54:59;10.40;99.90
69999;DHT22;57339;52.156;5.372;2024-02-04T05:57:31;10.40;99.90
69999;DHT22;57339;52.156;5.372;2024-02-04T05:59:58;10.30;99.90
69999;DHT22;57339;52.156;5.372;2024-02-04T06:02:25;10.30;99.90
69999;DHT22;57339;52.156;5.372;2024-02-04T06:04:54;10.30;99.90
69999;DHT22;57339;52.156;5.372;2024-02-04T06:07:21;10.30;99.90
69999;DHT22;57339;52.156;5.372;2024-02-04T06:09:48;10.30;99.90
69999;DHT22;57339;52.156;5.372;2024-02-04T06:12:15;10.30;99.90
69999;DHT22;57339;52.156;5.372;2024-02-04T06:14:42;10.30;99.90
69999;DHT22;57339;52.156;5.372;2024-02-04T06:17:09;10.30;99.90
69999;DHT22;57339;52.156;5.372;2024-02-04T06:19:36;10.30;99.90
69999;DHT22;57339;52.156;5.372;2024-02-04T06:22:03;10.30;99.90
69999;DHT22;57339;52.156;5.372;2024-02-04T06:24:31;10.30;99.90
69999;DHT22;57339;52.156;5.372;2024-02-04T06:26:58;10.30;99.90
69999;DHT22;57339;52.156;5.372;2024-02-04T06:29:25;10.30;99.90
69999;DHT22;57339;52.156;5.372;2024-02-04T06:31:55;10.30;99.90
69999;DHT22;57339;52.156;5.372;2024-02-04T06:34:22;10.40;99.90
69999;DHT22;57339;52.156;5.372;2024-02-04T06:36:50;10.40;99.90
69999;DHT22;57339;52.156;5.372;2024-02-04T06:39:17;10.40;99.90
69999;DHT22;57339;52.156;5.372;2024-02-04T06:41:44;10.40;99.90
69999;DHT22;57339;52.156;5.372;2024-02-04T06:44:11;10.40;99.90
69999;DHT22;57339;52.156;5.372;2024-02-04T06:46:38;10.40;99.90
69999;DHT22;57339;52.156;5.372;2024-02-04T06:49:08;10.50;99.90
69999;DHT22;57339;52.156;5.372;2024-02-04T06:51:36;10.40;99.90
69999;DHT22;57339;52.156;5.372;2024-02-04T06:54:03;10.40;99.90
69999;DHT22;57339;52.156;5.372;2024-02-04T06:56:31;10.40;99.90
69999;DHT22;57339;52.156;5.372;2024-02-04T06:58:58;10.40;99.90
69999;DHT22;57339;52.156;5.372;2024-02-04T07:01:25;10.40;99.90
69999;DHT22;57339;52.156;5.372;2024-02-04T07:04:06;10.40;99.90
69999;DHT22;57339;52.156;5.372;2024-02-04T07:06:34;10.40;99.90
69999;DHT22;57339;52.156;5.372;2024-02-04T07:09:13;10.50;99.90
69999;DHT22;57339;52.156;5.372;2024-02-04T07:11:40;10.50;99.90
69999;DHT22;57339;52.156;5.372;2024-02-04T07:14:12;10.50;99.90
69999;DHT22;57339;52.156;5.372;2024-02-04T07:16:39;10.50;99.90
69999;DHT22;57339;52.156;5.372;2024-02-04T07:19:07;10.60;99.90
69999;DHT22;57339;52.156;5.372;2024-02-04T07:21:39;10.60;99.90
69999;DHT22;57339;52.156;5.372;2024-02-04T07:24:08;10.60;99.90
69999;DHT22;57339;52.156;5.372;2024-02-04T07:26:35;10.60;99.90
69999;DHT22;57339;52.156;5.372;2024-02-04T07:29:02;10.60;99.90
69999;DHT22;57339;52.156;5.372;2024-02-04T07:31:29;10.60;99.90
69999;DHT22;57339;52.156;5.372;2024-02-04T07:33:56;10.70;99.90
69999;DHT22;57339;52.156;5.372;2024-02-04T07:36:26;10.70;99.90
69999;DHT22;57339;52.156;5.372;2024-02-04T07:38:54;10.70;99.90
69999;DHT22;57339;52.156;5.372;2024-02-04T07:41:22;10.80;99.90
69999;DHT22;57339;52.156;5.372;2024-02-04T07:43:51;10.80;99.90
69999;DHT22;57339;52.156;5.372;2024-02-04T07:46:18;10.80;99.90
69999;DHT22;57339;52.156;5.372;2024-02-04T07:48:49;10.80;99.90
69999;DHT22;57339;52.156;5.372;2024-02-04T07:51:16;10.80;99.90
69999;DHT22;57339;52.156;5.372;2024-02-04T07:53:43;10.80;99.90
69999;DHT22;57339;52.156;5.372;2024-02-04T07:56:12;10.90;99.90
69999;DHT22;57339;52.156;5.372;2024-02-04T07:58:39;10.90;99.90
69999;DHT22;57339;52.156;5.372;2024-02-04T08:01:09;10.80;99.90
69999;DHT22;57339;52.156;5.372;2024-02-04T08:03:36;10.80;99.90
69999;DHT22;57339;52.156;5.372;2024-02-04T08:06:04;10.90;99.90
69999;DHT22;57339;52.156;5.372;2024-02-04T08:08:33;10.90;99.90
69999;DHT22;57339;52.156;5.372;2024-02-04T08:11:00;10.90;99.90
69999;DHT22;57339;52.156;5.372;2024-02-04T08:13:30;10.90;99.90
69999;DHT22;57339;52.156;5.372;2024-02-04T08:15:59;10.90;99.90
69999;DHT22;57339;52.156;5.372;2024-02-04T08:18:29;11.00;99.90
69999;DHT22;57339;52.156;5.372;2024-02-04T08:21:00;10.90;99.90
69999;DHT22;57339;52.156;5.372;2024-02-04T08:23:31;10.90;99.90
69999;DHT22;57339;52.156;5.372;2024-02-04T08:25:59;10.90;99.90
69999;DHT22;57339;52.156;5.372;2024-02-04T08:28:26;10.90;99.90
69999;DHT22;57339;52.156;5.372;2024-02-04T08:30:56;10.90;99.90
69999;DHT22;57339;52.156;5.372;2024-02-04T08:33:28;10.90;99.90
69999;DHT22;57339;52.156;5.372;2024-02-04T08:35:56;11.00;99.90
69999;DHT22;57339;52.156;5.372;2024-02-04T08:38:25;10.90;99.90
69999;DHT22;57339;52.156;5.372;2024-02-04T08:40:54;11.00;99.90
69999;DHT22;57339;52.156;5.372;2024-02-04T08:43:21;11.00;99.90
69999;DHT22;57339;52.156;5.372;2024-02-04T08:46:00;10.90;99.90
69999;DHT22;57339;52.156;5.372;2024-02-04T08:48:39;11.00;99.90
69999;DHT22;57339;52.156;5.372;2024-02-04T08:51:13;11.00;99.90
69999;DHT22;57339;52.156;5.372;2024-02-04T08:53:40;11.00;99.90
69999;DHT22;57339;52.156;5.372;2024-02-04T08:56:07;11.00;99.90
69999;DHT22;57339;52.156;5.372;2024-02-04T08:58:38;11.00;99.90
69999;DHT22;57339;52.156;5.372;2024-02-04T09:01:05;11.00;99.90
69999;DHT22;57339;52.156;5.372;2024-02-04T09:03:33;11.00;99.90
69999;DHT22;57339;52.156;5.372;2024-02-04T09:06:00;11.00;99.90
69999;DHT22;57339;52.156;5.372;2024-02-04T09:08:30;11.10;99.90
69999;DHT22;57339;52.156;5.372;2024-02-04T09:11:00;11.10;99.90
69999;DHT22;57339;52.156;5.372;2024-02-04T09:13:27;11.10;99.90
69999;DHT22;57339;52.156;5.372;2024-02-04T09:15:57;11.10;99.90
69999;DHT22;57339;52.156;5.372;2024-02-04T09:18:26;11.10;99.90
69999;DHT22;57339;52.156;5.372;2024-02-04T09:20:57;11.20;99.90
69999;DHT22;57339;52.156;5.372;2024-02-04T09:23:30;11.20;99.90
69999;DHT22;57339;52.156;5.372;2024-02-04T09:25:57;11.30;99.90
69999;DHT22;57339;52.156;5.372;2024-02-04T09:28:26;11.20;99.90
69999;DHT22;57339;52.156;5.372;2024-02-04T09:30:57;11.20;99.90
69999;DHT22;57339;52.156;5.372;2024-02-04T09:33:27;11.30;99.90
69999;DHT22;57339;52.156;5.372;2024-02-04T09:36:00;11.30;99.90
69999;DHT22;57339;52.156;5.372;2024-02-04T09:38:27;11.30;99.90
69999;DHT22;57339;52.156;5.372;2024-02-04T09:40:56;11.30;99.90
69999;DHT22;57339;52.156;5.372;2024-02-04T09:43:32;11.30;99.90
69999;DHT22;57339;52.156;5.372;2024-02-04T09:46:03;11.40;99.90
69999;DHT22;57339;52.156;5.372;2024-02-04T09:48:32;11.40;99.90
69999;DHT22;57339;52.156;5.372;2024-02-04T09:51:02;11.50;99.90
69999;DHT22;57339;52.156;5.372;2024-02-04T09:53:34;11.50;99.90
69999;DHT22;57339;52.156;5.372;2024-02-04T09:56:05;11.60;99.90
69999;DHT22;57339;52.156;5.372;2024-02-04T09:58:33;11.60;99.90
69999;DHT22;57339;52.156;5.372;2024-02-04T10:01:01;11.60;99.90
69999;DHT22;57339;52.156;5.372;2024-02-04T10:03:30;11.60;99.90
69999;DHT22;57339;52.156;5.372;2024-02-04T10:05:57;11.60;99.90
69999;DHT22;57339;52.156;5.372;2024-02-04T10:08:35;11.60;99.90
69999;DHT22;57339;52.156;5.372;2024-02-04T10:11:05;11.60;99.90
69999;DHT22;57339;52.156;5.372;2024-02-04T10:13:50;11.70;99.90
69999;DHT22;57339;52.156;5.372;2024-02-04T10:16:17;11.70;99.90
69999;DHT22;57339;52.156;5.372;2024-02-04T10:18:45;11.70;99.90
69999;DHT22;57339;52.156;5.372;2024-02-04T10:21:20;11.70;99.90
69999;DHT22;57339;52.156;5.372;2024-02-04T10:23:48;11.80;99.90
69999;DHT22;57339;52.156;5.372;2024-02-04T10:26:17;11.80;99.90
69999;DHT22;57339;52.156;5.372;2024-02-04T10:28:50;11.80;99.90
69999;DHT22;57339;52.156;5.372;2024-02-04T10:31:20;11.80;99.90
69999;DHT22;57339;52.156;5.372;2024-02-04T10:33:47;11.80;99.90
69999;DHT22;57339;52.156;5.372;2024-02-04T10:36:14;11.80;99.90
69999;DHT22;57339;52.156;5.372;2024-02-04T10:38:46;11.80;99.90
69999;DHT22;57339;52.156;5.372;2024-02-04T10:41:15;11.80;99.90
69999;DHT22;57339;52.156;5.372;2024-02-04T10:43:44;11.80;99.90
69999;DHT22;57339;52.156;5.372;2024-02-04T10:46:18;11.80;99.90
69999;DHT22;57339;52.156;5.372;2024-02-04T10:48:52;11.80;99.90
69999;DHT22;57339;52.156;5.372;2024-02-04T10:51:25;11.90;99.90
69999;DHT22;57339;52.156;5.372;2024-02-04T10:53:54;11.80;99.90
69999;DHT22;57339;52.156;5.372;2024-02-04T10:56:37;11.80;99.90
69999;DHT22;57339;52.156;5.372;2024-02-04T10:59:10;11.80;99.90
69999;DHT22;57339;52.156;5.372;2024-02-04T11:01:39;11.80;99.90
69999;DHT22;57339;52.156;5.372;2024-02-04T11:04:09;11.90;99.90
69999;DHT22;57339;52.156;5.372;2024-02-04T11:06:38;11.90;99.90
69999;DHT22;57339;52.156;5.372;2024-02-04T11:09:05;11.90;99.90
69999;DHT22;57339;52.156;5.372;2024-02-04T11:11:33;11.90;99.90
69999;DHT22;57339;52.156;5.372;2024-02-04T11:14:03;11.90;99.90
69999;DHT22;57339;52.156;5.372;2024-02-04T11:25:19;11.80;99.90
69999;DHT22;57339;52.156;5.372;2024-02-04T11:27:54;11.80;99.90
69999;DHT22;57339;52.156;5.372;2024-02-04T11:30:22;11.80;99.90
69999;DHT22;57339;52.156;5.372;2024-02-04T11:32:52;11.80;99.90
69999;DHT22;57339;52.156;5.372;2024-02-04T11:35:22;11.80;99.90
69999;DHT22;57339;52.156;5.372;2024-02-04T11:37:50;11.70;99.90
69999;DHT22;57339;52.156;5.372;2024-02-04T11:40:17;11.70;99.90
69999;DHT22;57339;52.156;5.372;2024-02-04T11:42:45;11.70;99.90
69999;DHT22;57339;52.156;5.372;2024-02-04T11:45:13;11.70;99.90
69999;DHT22;57339;52.156;5.372;2024-02-04T11:47:40;11.70;99.90
69999;DHT22;57339;52.156;5.372;2024-02-04T11:50:11;11.70;99.90
69999;DHT22;57339;52.156;5.372;2024-02-04T11:52:39;11.70;99.90
69999;DHT22;57339;52.156;5.372;2024-02-04T11:55:13;11.70;99.90
69999;DHT22;57339;52.156;5.372;2024-02-04T11:57:40;11.70;99.90
69999;DHT22;57339;52.156;5.372;2024-02-04T12:00:08;11.70;99.90
69999;DHT22;57339;52.156;5.372;2024-02-04T12:02:35;11.70;99.90
69999;DHT22;57339;52.156;5.372;2024-02-04T12:05:02;11.70;99.90
69999;DHT22;57339;52.156;5.372;2024-02-04T12:07:33;11.70;99.90
69999;DHT22;57339;52.156;5.372;2024-02-04T12:10:03;11.70;99.90
69999;DHT22;57339;52.156;5.372;2024-02-04T12:12:31;11.80;99.90
69999;DHT22;57339;52.156;5.372;2024-02-04T12:15:00;11.70;99.90
69999;DHT22;57339;52.156;5.372;2024-02-04T12:17:27;11.80;99.90
69999;DHT22;57339;52.156;5.372;2024-02-04T12:19:54;11.80;99.90
69999;DHT22;57339;52.156;5.372;2024-02-04T12:22:24;11.80;99.90
69999;DHT22;57339;52.156;5.372;2024-02-04T12:24:51;11.80;99.90
69999;DHT22;57339;52.156;5.372;2024-02-04T12:27:18;11.90;99.90
69999;DHT22;57339;52.156;5.372;2024-02-04T12:29:45;11.90;99.90
69999;DHT22;57339;52.156;5.372;2024-02-04T12:32:13;11.90;99.90
69999;DHT22;57339;52.156;5.372;2024-02-04T12:34:40;11.90;99.90
69999;DHT22;57339;52.156;5.372;2024-02-04T12:37:08;11.90;99.90
69999;DHT22;57339;52.156;5.372;2024-02-04T12:39:37;11.90;99.90
69999;DHT22;57339;52.156;5.372;2024-02-04T12:42:05;11.90;99.90
69999;DHT22;57339;52.156;5.372;2024-02-04T12:44:32;11.90;99.90
69999;DHT22;57339;52.156;5.372;2024-02-04T12:46:59;11.90;99.90
69999;DHT22;57339;52.156;5.372;2024-02-04T12:49:27;12.00;99.90
69999;DHT22;57339;52.156;5.372;2024-02-04T12:52:04;12.00;99.90
69999;DHT22;57339;52.156;5.372;2024-02-04T12:54:43;12.00;99.90
69999;DHT22;57339;52.156;5.372;2024-02-04T12:57:21;12.00;99.90
69999;DHT22;57339;52.156;5.372;2024-02-04T12:59:51;12.00;99.90
69999;DHT22;57339;52.156;5.372;2024-02-04T13:02:18;12.00;99.90
69999;DHT22;57339;52.156;5.372;2024-02-04T13:04:45;11.90;99.90
69999;DHT22;57339;52.156;5.372;2024-02-04T13:07:13;12.00;99.90
69999;DHT22;57339;52.156;5.372;2024-02-04T13:09:41;12.00;99.90
69999;DHT22;57339;52.156;5.372;2024-02-04T13:12:09;11.90;99.90
69999;DHT22;57339;52.156;5.372;2024-02-04T13:14:37;11.90;99.90
69999;DHT22;57339;52.156;5.372;2024-02-04T13:17:04;11.90;99.90
69999;DHT22;57339;52.156;5.372;2024-02-04T13:19:35;12.00;99.90
69999;DHT22;57339;52.156;5.372;2024-02-04T13:22:06;12.00;99.90
69999;DHT22;57339;52.156;5.372;2024-02-04T13:24:33;12.00;99.90
69999;DHT22;57339;52.156;5.372;2024-02-04T13:27:04;12.00;99.90
69999;DHT22;57339;52.156;5.372;2024-02-04T13:29:31;12.00;99.90
69999;DHT22;57339;52.156;5.372;2024-02-04T13:32:05;12.00;99.90
69999;DHT22;57339;52.156;5.372;2024-02-04T13:34:57;12.10;99.90
69999;DHT22;57339;52.156;5.372;2024-02-04T13:37:39;12.10;99.90
69999;DHT22;57339;52.156;5.372;2024-02-04T13:40:10;12.10;99.90
69999;DHT22;57339;52.156;5.372;2024-02-04T13:42:37;12.10;99.90
69999;DHT22;57339;52.156;5.372;2024-02-04T13:45:05;12.10;99.90
69999;DHT22;57339;52.156;5.372;2024-02-04T13:47:35;12.10;99.90
69999;DHT22;57339;52.156;5.372;2024-02-04T13:50:02;12.20;99.90
69999;DHT22;57339;52.156;5.372;2024-02-04T13:52:32;12.20;99.90
69999;DHT22;57339;52.156;5.372;2024-02-04T13:54:59;12.30;99.90
69999;DHT22;57339;52.156;5.372;2024-02-04T13:57:29;12.30;99.90
69999;DHT22;57339;52.156;5.372;2024-02-04T14:00:00;12.30;99.90
69999;DHT22;57339;52.156;5.372;2024-02-04T14:02:28;12.30;99.90
69999;DHT22;57339;52.156;5.372;2024-02-04T14:04:55;12.30;99.90
69999;DHT22;57339;52.156;5.372;2024-02-04T14:07:22;12.30;99.90
69999;DHT22;57339;52.156;5.372;2024-02-04T14:09:49;12.30;99.90
69999;DHT22;57339;52.156;5.372;2024-02-04T14:12:16;12.40;99.90
69999;DHT22;57339;52.156;5.372;2024-02-04T14:14:43;12.40;99.90
69999;DHT22;57339;52.156;5.372;2024-02-04T14:17:10;12.40;99.90
69999;DHT22;57339;52.156;5.372;2024-02-04T14:19:37;12.40;99.90
69999;DHT22;57339;52.156;5.372;2024-02-04T14:22:04;12.30;99.90
69999;DHT22;57339;52.156;5.372;2024-02-04T14:24:32;12.30;99.90
69999;DHT22;57339;52.156;5.372;2024-02-04T14:26:59;12.30;99.90
69999;DHT22;57339;52.156;5.372;2024-02-04T14:29:27;12.30;99.90
69999;DHT22;57339;52.156;5.372;2024-02-04T14:31:57;12.30;99.90
69999;DHT22;57339;52.156;5.372;2024-02-04T14:34:27;12.30;99.90
69999;DHT22;57339;52.156;5.372;2024-02-04T14:36:54;12.20;99.90
69999;DHT22;57339;52.156;5.372;2024-02-04T14:39:21;12.30;99.90
69999;DHT22;57339;52.156;5.372;2024-02-04T14:41:51;12.20;99.90
69999;DHT22;57339;52.156;5.372;2024-02-04T14:44:23;12.20;99.90
69999;DHT22;57339;52.156;5.372;2024-02-04T14:46:50;12.20;99.90
69999;DHT22;57339;52.156;5.372;2024-02-04T14:49:17;12.20;99.90
69999;DHT22;57339;52.156;5.372;2024-02-04T14:51:45;12.20;99.90
69999;DHT22;57339;52.156;5.372;2024-02-04T14:54:15;12.20;99.90
69999;DHT22;57339;52.156;5.372;2024-02-04T14:56:45;12.30;99.90
69999;DHT22;57339;52.156;5.372;2024-02-04T14:59:14;12.30;99.90
69999;DHT22;57339;52.156;5.372;2024-02-04T15:01:49;12.20;99.90
69999;DHT22;57339;52.156;5.372;2024-02-04T15:04:18;12.20;99.90
69999;DHT22;57339;52.156;5.372;2024-02-04T15:06:49;12.20;99.90
69999;DHT22;57339;52.156;5.372;2024-02-04T15:09:19;12.20;99.90
69999;DHT22;57339;52.156;5.372;2024-02-04T15:11:46;12.20;99.90
69999;DHT22;57339;52.156;5.372;2024-02-04T15:14:13;12.20;99.90
69999;DHT22;57339;52.156;5.372;2024-02-04T15:16:41;12.20;99.90
69999;DHT22;57339;52.156;5.372;2024-02-04T15:19:08;12.20;99.90
69999;DHT22;57339;52.156;5.372;2024-02-04T15:21:36;12.20;99.90
69999;DHT22;57339;52.156;5.372;2024-02-04T15:24:04;12.20;99.90
69999;DHT22;57339;52.156;5.372;2024-02-04T15:26:32;12.20;99.90
69999;DHT22;57339;52.156;5.372;2024-02-04T15:29:03;12.20;99.90
69999;DHT22;57339;52.156;5.372;2024-02-04T15:31:34;12.20;99.90
69999;DHT22;57339;52.156;5.372;2024-02-04T15:34:05;12.10;99.90
69999;DHT22;57339;52.156;5.372;2024-02-04T15:36:33;12.20;99.90
69999;DHT22;57339;52.156;5.372;2024-02-04T15:39:00;12.20;99.90
69999;DHT22;57339;52.156;5.372;2024-02-04T15:41:30;12.20;99.90
69999;DHT22;57339;52.156;5.372;2024-02-04T15:44:00;12.20;99.90
69999;DHT22;57339;52.156;5.372;2024-02-04T15:46:30;12.20;99.90
69999;DHT22;57339;52.156;5.372;2024-02-04T15:48:59;12.20;99.90
69999;DHT22;57339;52.156;5.372;2024-02-04T15:51:31;12.30;99.90
69999;DHT22;57339;52.156;5.372;2024-02-04T15:54:06;12.20;99.90